Gaston, SC

7:46 AM EST on December 26, 2014 (GMT -0500)
Gaston SC | Change Station
CLOSE
Current Station
Personal Weather Station
Location: Gaston, SC
Elevation: 436 ft
Nearby Weather Stations

Elev 436 ft 33.80 °N, 81.12 °W | Updated 14 minutes ago

Mostly Cloudy
Mostly Cloudy
29.1 °F
Feels Like 29 °F
N
0.0
Wind Variable Wind from SSW

Today
High -- | Low -- °F
--% Chance of Precip.
Yesterday
High -- | Low -- °F
Precip. -- in
7:27 AM 5:22 PM
Waxing Crescent, 25% visible
Pressure 30.33 in
Visibility 0.8 miles
Clouds Scattered Clouds 200 ft
Scattered Clouds 15000 ft
Windchill 29 °F
Dew Point 28 °F
Humidity 94%
Rainfall 0.00 in
Snow Depth Not available.
UV 0 out of 12
Pollen .30 out of 12
Air Quality Not available.
Flu Activity Not available.
SPECI KCAE 261236Z 26004KT 3/4SM BR SCT002 SCT150 00/M01 A3033 RMK AO2 T00001011 RVRNO

More Conditions Fewer Conditions

Pressure 30.33 in
Visibility 0.8 miles
Clouds Scattered Clouds 200 ft
Scattered Clouds 15000 ft
Windchill 29 °F
Dew Point 28 °F
Humidity 94%
Rainfall 0.00 in
Snow Depth Not available.
UV 0 out of 12
Pollen .30 out of 12
Air Quality Not available.
Flu Activity Not available.
SPECI KCAE 261236Z 26004KT 3/4SM BR SCT002 SCT150 00/M01 A3033 RMK AO2 T00001011 RVRNO

More Conditions Fewer Conditions

10-Day Weather Forecast

Almanac

Astronomy

Dec. 26, 2014 Rise Set
Actual Time
Civil Twilight
Nautical Twilight
Astronomical Twilight
Moon
Length of Visible Light
Length of Day
Tomorrow will be .
, % of the Moon is Illuminated

Today's Extremes

State Highs State Lows

Community

WunderPhotos

Upload Photos

1,780,588 photos uploaded!

WunderBlogs® & News

Nearby

Air Quality

  Air Quality AQ Index Pollutant
Not available.

Snow Depth

Station Depth Elevation

Earthquake Activity

City Distance Mag. Time & Date
Minimum magnitude displayed is 2.5.

Coastal Water Temperatures

Place Temperature

Nearby Weather Stations